sensor_id;sensor_type;location;lat;lon;timestamp;P1;durP1;ratioP1;P2;durP2;ratioP2
16199;SDS011;8207;52.494;4.654;2022-10-16T00:00:44;4.70;;;1.27;;
16199;SDS011;8207;52.494;4.654;2022-10-16T00:03:11;4.18;;;1.10;;
16199;SDS011;8207;52.494;4.654;2022-10-16T00:05:39;2.47;;;0.98;;
16199;SDS011;8207;52.494;4.654;2022-10-16T00:08:06;2.97;;;1.20;;
16199;SDS011;8207;52.494;4.654;2022-10-16T00:10:34;2.60;;;0.80;;
16199;SDS011;8207;52.494;4.654;2022-10-16T00:13:02;5.78;;;1.20;;
16199;SDS011;8207;52.494;4.654;2022-10-16T00:15:30;4.95;;;1.17;;
16199;SDS011;8207;52.494;4.654;2022-10-16T00:17:58;3.90;;;1.10;;
16199;SDS011;8207;52.494;4.654;2022-10-16T00:20:25;4.80;;;0.90;;
16199;SDS011;8207;52.494;4.654;2022-10-16T00:22:52;2.63;;;1.00;;
16199;SDS011;8207;52.494;4.654;2022-10-16T00:25:19;2.50;;;1.00;;
16199;SDS011;8207;52.494;4.654;2022-10-16T00:27:46;1.67;;;0.82;;
16199;SDS011;8207;52.494;4.654;2022-10-16T00:30:14;2.65;;;1.10;;
16199;SDS011;8207;52.494;4.654;2022-10-16T00:32:41;2.38;;;0.90;;
16199;SDS011;8207;52.494;4.654;2022-10-16T00:35:08;3.87;;;1.30;;
16199;SDS011;8207;52.494;4.654;2022-10-16T00:37:35;2.77;;;0.90;;
16199;SDS011;8207;52.494;4.654;2022-10-16T00:40:02;3.40;;;1.50;;
16199;SDS011;8207;52.494;4.654;2022-10-16T00:42:29;4.63;;;1.30;;
16199;SDS011;8207;52.494;4.654;2022-10-16T00:44:57;1.48;;;0.98;;
16199;SDS011;8207;52.494;4.654;2022-10-16T00:47:26;5.30;;;1.33;;
16199;SDS011;8207;52.494;4.654;2022-10-16T00:49:58;3.13;;;1.00;;
16199;SDS011;8207;52.494;4.654;2022-10-16T00:52:30;4.80;;;1.20;;
16199;SDS011;8207;52.494;4.654;2022-10-16T00:54:57;2.83;;;1.05;;
16199;SDS011;8207;52.494;4.654;2022-10-16T00:57:26;4.28;;;1.00;;
16199;SDS011;8207;52.494;4.654;2022-10-16T00:59:53;2.03;;;1.15;;
16199;SDS011;8207;52.494;4.654;2022-10-16T01:02:20;5.22;;;1.05;;
16199;SDS011;8207;52.494;4.654;2022-10-16T01:04:48;3.70;;;1.30;;
16199;SDS011;8207;52.494;4.654;2022-10-16T01:07:20;5.13;;;1.40;;
16199;SDS011;8207;52.494;4.654;2022-10-16T01:09:59;2.77;;;1.20;;
16199;SDS011;8207;52.494;4.654;2022-10-16T01:12:34;2.23;;;1.00;;
16199;SDS011;8207;52.494;4.654;2022-10-16T01:15:08;6.22;;;1.35;;
16199;SDS011;8207;52.494;4.654;2022-10-16T01:17:41;3.85;;;1.27;;
16199;SDS011;8207;52.494;4.654;2022-10-16T01:20:14;4.70;;;1.00;;
16199;SDS011;8207;52.494;4.654;2022-10-16T01:22:56;2.30;;;1.10;;
16199;SDS011;8207;52.494;4.654;2022-10-16T01:25:49;3.33;;;0.90;;
16199;SDS011;8207;52.494;4.654;2022-10-16T01:28:32;2.65;;;0.93;;
16199;SDS011;8207;52.494;4.654;2022-10-16T01:31:04;2.00;;;0.90;;
16199;SDS011;8207;52.494;4.654;2022-10-16T01:33:34;5.97;;;1.37;;
16199;SDS011;8207;52.494;4.654;2022-10-16T01:36:06;4.88;;;1.20;;
16199;SDS011;8207;52.494;4.654;2022-10-16T01:38:38;2.95;;;1.00;;
16199;SDS011;8207;52.494;4.654;2022-10-16T01:41:07;4.63;;;1.40;;
16199;SDS011;8207;52.494;4.654;2022-10-16T01:43:37;5.70;;;1.23;;
16199;SDS011;8207;52.494;4.654;2022-10-16T01:46:08;4.43;;;1.23;;
16199;SDS011;8207;52.494;4.654;2022-10-16T01:48:39;4.40;;;1.27;;
16199;SDS011;8207;52.494;4.654;2022-10-16T01:51:07;7.13;;;1.70;;
16199;SDS011;8207;52.494;4.654;2022-10-16T01:53:37;5.20;;;1.43;;
16199;SDS011;8207;52.494;4.654;2022-10-16T01:56:04;9.50;;;1.48;;
16199;SDS011;8207;52.494;4.654;2022-10-16T01:58:37;6.63;;;1.33;;
16199;SDS011;8207;52.494;4.654;2022-10-16T02:01:10;4.50;;;1.20;;
16199;SDS011;8207;52.494;4.654;2022-10-16T02:03:39;3.10;;;1.10;;
16199;SDS011;8207;52.494;4.654;2022-10-16T02:06:08;3.22;;;1.10;;
16199;SDS011;8207;52.494;4.654;2022-10-16T02:08:35;3.33;;;1.03;;
16199;SDS011;8207;52.494;4.654;2022-10-16T02:11:04;3.60;;;1.20;;
16199;SDS011;8207;52.494;4.654;2022-10-16T02:13:32;3.38;;;0.98;;
16199;SDS011;8207;52.494;4.654;2022-10-16T02:16:05;2.60;;;0.87;;
16199;SDS011;8207;52.494;4.654;2022-10-16T02:18:32;3.67;;;0.77;;
16199;SDS011;8207;52.494;4.654;2022-10-16T02:20:59;3.07;;;1.13;;
16199;SDS011;8207;52.494;4.654;2022-10-16T02:23:34;3.05;;;1.10;;
16199;SDS011;8207;52.494;4.654;2022-10-16T02:26:08;2.33;;;0.95;;
16199;SDS011;8207;52.494;4.654;2022-10-16T02:28:41;2.35;;;0.98;;
16199;SDS011;8207;52.494;4.654;2022-10-16T02:31:13;3.50;;;1.10;;
16199;SDS011;8207;52.494;4.654;2022-10-16T02:33:46;3.00;;;1.00;;
16199;SDS011;8207;52.494;4.654;2022-10-16T02:36:13;4.20;;;1.30;;
16199;SDS011;8207;52.494;4.654;2022-10-16T02:38:40;4.13;;;1.38;;
16199;SDS011;8207;52.494;4.654;2022-10-16T02:41:08;2.70;;;0.87;;
16199;SDS011;8207;52.494;4.654;2022-10-16T02:43:35;3.23;;;1.23;;
16199;SDS011;8207;52.494;4.654;2022-10-16T02:46:02;4.27;;;1.03;;
16199;SDS011;8207;52.494;4.654;2022-10-16T02:48:30;2.37;;;1.00;;
16199;SDS011;8207;52.494;4.654;2022-10-16T02:50:57;4.50;;;1.48;;
16199;SDS011;8207;52.494;4.654;2022-10-16T02:53:24;1.88;;;1.10;;
16199;SDS011;8207;52.494;4.654;2022-10-16T02:55:51;4.73;;;0.93;;
16199;SDS011;8207;52.494;4.654;2022-10-16T02:58:18;1.83;;;1.10;;
16199;SDS011;8207;52.494;4.654;2022-10-16T03:00:45;5.27;;;1.27;;
16199;SDS011;8207;52.494;4.654;2022-10-16T03:03:11;3.50;;;1.20;;
16199;SDS011;8207;52.494;4.654;2022-10-16T03:05:40;3.25;;;0.95;;
16199;SDS011;8207;52.494;4.654;2022-10-16T03:08:10;4.53;;;1.50;;
16199;SDS011;8207;52.494;4.654;2022-10-16T03:10:37;4.47;;;1.67;;
16199;SDS011;8207;52.494;4.654;2022-10-16T03:13:06;4.87;;;1.30;;
16199;SDS011;8207;52.494;4.654;2022-10-16T03:15:33;3.60;;;1.27;;
16199;SDS011;8207;52.494;4.654;2022-10-16T03:18:00;2.87;;;1.27;;
16199;SDS011;8207;52.494;4.654;2022-10-16T03:20:27;3.40;;;1.30;;
16199;SDS011;8207;52.494;4.654;2022-10-16T03:22:55;2.07;;;1.10;;
16199;SDS011;8207;52.494;4.654;2022-10-16T03:25:22;6.10;;;1.20;;
16199;SDS011;8207;52.494;4.654;2022-10-16T03:27:49;5.63;;;1.33;;
16199;SDS011;8207;52.494;4.654;2022-10-16T03:30:16;7.05;;;1.40;;
16199;SDS011;8207;52.494;4.654;2022-10-16T03:32:43;6.32;;;1.65;;
16199;SDS011;8207;52.494;4.654;2022-10-16T03:35:11;4.53;;;1.38;;
16199;SDS011;8207;52.494;4.654;2022-10-16T03:37:38;5.17;;;1.63;;
16199;SDS011;8207;52.494;4.654;2022-10-16T03:40:07;4.57;;;2.13;;
16199;SDS011;8207;52.494;4.654;2022-10-16T03:42:35;4.90;;;1.60;;
16199;SDS011;8207;52.494;4.654;2022-10-16T03:45:01;5.30;;;1.60;;
16199;SDS011;8207;52.494;4.654;2022-10-16T03:47:29;4.45;;;1.58;;
16199;SDS011;8207;52.494;4.654;2022-10-16T03:49:58;6.57;;;1.65;;
16199;SDS011;8207;52.494;4.654;2022-10-16T03:52:24;4.47;;;1.65;;
16199;SDS011;8207;52.494;4.654;2022-10-16T03:54:52;6.18;;;1.60;;
16199;SDS011;8207;52.494;4.654;2022-10-16T03:57:20;3.30;;;1.60;;
16199;SDS011;8207;52.494;4.654;2022-10-16T03:59:47;3.03;;;1.60;;
16199;SDS011;8207;52.494;4.654;2022-10-16T04:02:14;3.15;;;1.50;;
16199;SDS011;8207;52.494;4.654;2022-10-16T04:04:40;7.78;;;1.52;;
16199;SDS011;8207;52.494;4.654;2022-10-16T04:07:07;8.70;;;2.90;;
16199;SDS011;8207;52.494;4.654;2022-10-16T04:09:34;6.27;;;2.27;;
16199;SDS011;8207;52.494;4.654;2022-10-16T04:12:01;6.53;;;1.90;;
16199;SDS011;8207;52.494;4.654;2022-10-16T04:14:29;6.70;;;2.00;;
16199;SDS011;8207;52.494;4.654;2022-10-16T04:16:56;7.83;;;2.23;;
16199;SDS011;8207;52.494;4.654;2022-10-16T04:19:23;8.90;;;2.80;;
16199;SDS011;8207;52.494;4.654;2022-10-16T04:21:50;9.70;;;2.53;;
16199;SDS011;8207;52.494;4.654;2022-10-16T04:24:17;14.67;;;2.70;;
16199;SDS011;8207;52.494;4.654;2022-10-16T04:26:44;8.13;;;2.75;;
16199;SDS011;8207;52.494;4.654;2022-10-16T04:29:10;8.38;;;1.85;;
16199;SDS011;8207;52.494;4.654;2022-10-16T04:31:39;8.93;;;2.10;;
16199;SDS011;8207;52.494;4.654;2022-10-16T04:34:05;12.30;;;2.90;;
16199;SDS011;8207;52.494;4.654;2022-10-16T04:38:58;12.27;;;2.17;;
16199;SDS011;8207;52.494;4.654;2022-10-16T04:41:24;7.68;;;2.00;;
16199;SDS011;8207;52.494;4.654;2022-10-16T04:43:52;6.80;;;1.90;;
16199;SDS011;8207;52.494;4.654;2022-10-16T04:46:18;9.68;;;2.20;;
16199;SDS011;8207;52.494;4.654;2022-10-16T04:48:47;14.73;;;2.78;;
16199;SDS011;8207;52.494;4.654;2022-10-16T04:51:13;8.38;;;1.98;;
16199;SDS011;8207;52.494;4.654;2022-10-16T04:53:40;12.85;;;3.15;;
16199;SDS011;8207;52.494;4.654;2022-10-16T04:56:07;13.23;;;2.90;;
16199;SDS011;8207;52.494;4.654;2022-10-16T04:58:34;9.93;;;2.53;;
16199;SDS011;8207;52.494;4.654;2022-10-16T05:01:01;10.40;;;2.60;;
16199;SDS011;8207;52.494;4.654;2022-10-16T05:03:28;12.35;;;2.38;;
16199;SDS011;8207;52.494;4.654;2022-10-16T05:05:56;10.00;;;2.73;;
16199;SDS011;8207;52.494;4.654;2022-10-16T05:08:23;8.83;;;2.20;;
16199;SDS011;8207;52.494;4.654;2022-10-16T05:10:50;10.30;;;2.30;;
16199;SDS011;8207;52.494;4.654;2022-10-16T05:13:17;8.07;;;2.67;;
16199;SDS011;8207;52.494;4.654;2022-10-16T05:15:46;12.07;;;2.60;;
16199;SDS011;8207;52.494;4.654;2022-10-16T05:18:14;16.13;;;2.47;;
16199;SDS011;8207;52.494;4.654;2022-10-16T05:20:41;10.83;;;2.93;;
16199;SDS011;8207;52.494;4.654;2022-10-16T05:23:09;9.20;;;2.57;;
16199;SDS011;8207;52.494;4.654;2022-10-16T05:25:36;9.57;;;2.00;;
16199;SDS011;8207;52.494;4.654;2022-10-16T05:28:03;10.40;;;2.27;;
16199;SDS011;8207;52.494;4.654;2022-10-16T05:30:30;7.13;;;1.90;;
16199;SDS011;8207;52.494;4.654;2022-10-16T05:32:57;9.63;;;1.83;;
16199;SDS011;8207;52.494;4.654;2022-10-16T05:35:24;7.97;;;1.90;;
16199;SDS011;8207;52.494;4.654;2022-10-16T05:37:51;8.17;;;1.70;;
16199;SDS011;8207;52.494;4.654;2022-10-16T05:40:20;9.82;;;2.15;;
16199;SDS011;8207;52.494;4.654;2022-10-16T05:42:47;5.13;;;1.80;;
16199;SDS011;8207;52.494;4.654;2022-10-16T05:45:14;6.22;;;1.60;;
16199;SDS011;8207;52.494;4.654;2022-10-16T05:47:41;5.73;;;1.40;;
16199;SDS011;8207;52.494;4.654;2022-10-16T05:50:08;6.23;;;2.03;;
16199;SDS011;8207;52.494;4.654;2022-10-16T05:52:34;8.47;;;2.43;;
16199;SDS011;8207;52.494;4.654;2022-10-16T05:55:01;6.77;;;1.77;;
16199;SDS011;8207;52.494;4.654;2022-10-16T05:57:30;7.10;;;2.50;;
16199;SDS011;8207;52.494;4.654;2022-10-16T05:59:57;9.30;;;2.57;;
16199;SDS011;8207;52.494;4.654;2022-10-16T06:02:23;4.80;;;2.23;;
16199;SDS011;8207;52.494;4.654;2022-10-16T06:04:51;9.20;;;2.20;;
16199;SDS011;8207;52.494;4.654;2022-10-16T06:07:18;4.90;;;2.30;;
16199;SDS011;8207;52.494;4.654;2022-10-16T06:09:47;10.03;;;2.13;;
16199;SDS011;8207;52.494;4.654;2022-10-16T06:12:14;6.83;;;1.87;;
16199;SDS011;8207;52.494;4.654;2022-10-16T06:14:43;6.70;;;1.80;;
16199;SDS011;8207;52.494;4.654;2022-10-16T06:17:11;7.20;;;2.00;;
16199;SDS011;8207;52.494;4.654;2022-10-16T06:19:38;7.07;;;2.03;;
16199;SDS011;8207;52.494;4.654;2022-10-16T06:22:05;6.60;;;2.17;;
16199;SDS011;8207;52.494;4.654;2022-10-16T06:24:32;4.93;;;1.37;;
16199;SDS011;8207;52.494;4.654;2022-10-16T06:26:59;7.63;;;2.53;;
16199;SDS011;8207;52.494;4.654;2022-10-16T06:29:26;11.63;;;1.97;;
16199;SDS011;8207;52.494;4.654;2022-10-16T06:31:54;4.53;;;1.73;;
16199;SDS011;8207;52.494;4.654;2022-10-16T06:34:21;7.47;;;1.63;;
16199;SDS011;8207;52.494;4.654;2022-10-16T06:36:48;7.53;;;2.00;;
16199;SDS011;8207;52.494;4.654;2022-10-16T06:39:15;7.23;;;2.07;;
16199;SDS011;8207;52.494;4.654;2022-10-16T06:41:42;7.70;;;2.27;;
16199;SDS011;8207;52.494;4.654;2022-10-16T06:44:09;5.90;;;1.70;;
16199;SDS011;8207;52.494;4.654;2022-10-16T06:46:39;8.70;;;2.33;;
16199;SDS011;8207;52.494;4.654;2022-10-16T06:49:07;11.23;;;3.00;;
16199;SDS011;8207;52.494;4.654;2022-10-16T06:51:34;8.73;;;2.60;;
16199;SDS011;8207;52.494;4.654;2022-10-16T06:54:05;11.13;;;2.97;;
16199;SDS011;8207;52.494;4.654;2022-10-16T06:56:32;11.77;;;2.47;;
16199;SDS011;8207;52.494;4.654;2022-10-16T06:59:00;9.83;;;2.30;;
16199;SDS011;8207;52.494;4.654;2022-10-16T07:01:28;12.13;;;2.63;;
16199;SDS011;8207;52.494;4.654;2022-10-16T07:03:55;10.67;;;2.20;;
16199;SDS011;8207;52.494;4.654;2022-10-16T07:06:24;11.10;;;2.50;;
16199;SDS011;8207;52.494;4.654;2022-10-16T07:08:52;10.03;;;2.50;;
16199;SDS011;8207;52.494;4.654;2022-10-16T07:11:19;8.00;;;2.47;;
16199;SDS011;8207;52.494;4.654;2022-10-16T07:13:48;15.10;;;3.70;;
16199;SDS011;8207;52.494;4.654;2022-10-16T07:16:16;13.93;;;2.63;;
16199;SDS011;8207;52.494;4.654;2022-10-16T07:18:44;14.57;;;2.40;;
16199;SDS011;8207;52.494;4.654;2022-10-16T07:21:14;10.70;;;2.50;;
16199;SDS011;8207;52.494;4.654;2022-10-16T07:23:43;15.43;;;3.33;;
16199;SDS011;8207;52.494;4.654;2022-10-16T07:26:11;14.97;;;3.10;;
16199;SDS011;8207;52.494;4.654;2022-10-16T07:28:38;10.90;;;2.30;;
16199;SDS011;8207;52.494;4.654;2022-10-16T07:31:06;15.23;;;3.00;;
16199;SDS011;8207;52.494;4.654;2022-10-16T07:33:36;22.07;;;4.63;;
16199;SDS011;8207;52.494;4.654;2022-10-16T07:36:04;18.45;;;3.83;;
16199;SDS011;8207;52.494;4.654;2022-10-16T07:38:31;18.83;;;4.53;;
16199;SDS011;8207;52.494;4.654;2022-10-16T07:41:00;25.17;;;4.30;;
16199;SDS011;8207;52.494;4.654;2022-10-16T07:43:28;18.70;;;3.60;;
16199;SDS011;8207;52.494;4.654;2022-10-16T07:45:56;18.97;;;3.80;;
16199;SDS011;8207;52.494;4.654;2022-10-16T07:48:23;24.05;;;5.35;;
16199;SDS011;8207;52.494;4.654;2022-10-16T07:50:52;22.00;;;4.80;;
16199;SDS011;8207;52.494;4.654;2022-10-16T07:53:22;20.93;;;4.70;;
16199;SDS011;8207;52.494;4.654;2022-10-16T07:55:49;28.02;;;4.93;;
16199;SDS011;8207;52.494;4.654;2022-10-16T07:58:17;20.67;;;5.00;;
16199;SDS011;8207;52.494;4.654;2022-10-16T08:00:44;23.13;;;4.43;;
16199;SDS011;8207;52.494;4.654;2022-10-16T08:03:11;18.60;;;4.45;;
16199;SDS011;8207;52.494;4.654;2022-10-16T08:05:38;18.27;;;3.22;;
16199;SDS011;8207;52.494;4.654;2022-10-16T08:08:05;15.48;;;3.10;;
16199;SDS011;8207;52.494;4.654;2022-10-16T08:10:31;23.77;;;3.70;;
16199;SDS011;8207;52.494;4.654;2022-10-16T08:12:58;14.80;;;4.10;;
16199;SDS011;8207;52.494;4.654;2022-10-16T08:15:27;17.35;;;4.00;;
16199;SDS011;8207;52.494;4.654;2022-10-16T08:17:54;12.20;;;3.40;;
16199;SDS011;8207;52.494;4.654;2022-10-16T08:20:22;14.30;;;3.38;;
16199;SDS011;8207;52.494;4.654;2022-10-16T08:22:49;13.27;;;3.05;;
16199;SDS011;8207;52.494;4.654;2022-10-16T08:25:16;17.60;;;3.15;;
16199;SDS011;8207;52.494;4.654;2022-10-16T08:27:45;22.60;;;3.47;;
16199;SDS011;8207;52.494;4.654;2022-10-16T08:30:12;21.00;;;4.53;;
16199;SDS011;8207;52.494;4.654;2022-10-16T08:32:40;26.38;;;4.40;;
16199;SDS011;8207;52.494;4.654;2022-10-16T08:35:08;18.53;;;3.33;;
16199;SDS011;8207;52.494;4.654;2022-10-16T08:37:35;19.58;;;3.47;;
16199;SDS011;8207;52.494;4.654;2022-10-16T08:40:02;18.08;;;4.35;;
16199;SDS011;8207;52.494;4.654;2022-10-16T08:42:37;19.80;;;5.27;;
16199;SDS011;8207;52.494;4.654;2022-10-16T08:48:13;15.73;;;4.38;;
16199;SDS011;8207;52.494;4.654;2022-10-16T08:50:45;12.30;;;3.70;;
16199;SDS011;8207;52.494;4.654;2022-10-16T08:53:16;18.48;;;4.75;;
16199;SDS011;8207;52.494;4.654;2022-10-16T08:55:46;16.88;;;4.80;;
16199;SDS011;8207;52.494;4.654;2022-10-16T08:58:16;18.02;;;4.50;;
16199;SDS011;8207;52.494;4.654;2022-10-16T09:00:45;20.45;;;5.25;;
16199;SDS011;8207;52.494;4.654;2022-10-16T09:03:23;15.68;;;4.07;;
16199;SDS011;8207;52.494;4.654;2022-10-16T09:06:02;27.33;;;5.43;;
16199;SDS011;8207;52.494;4.654;2022-10-16T09:08:42;20.85;;;4.78;;
16199;SDS011;8207;52.494;4.654;2022-10-16T09:11:17;12.30;;;3.40;;
16199;SDS011;8207;52.494;4.654;2022-10-16T09:13:54;16.45;;;3.78;;
16199;SDS011;8207;52.494;4.654;2022-10-16T09:16:30;17.37;;;3.87;;
16199;SDS011;8207;52.494;4.654;2022-10-16T09:19:04;14.60;;;3.72;;
16199;SDS011;8207;52.494;4.654;2022-10-16T09:21:40;18.65;;;4.35;;
16199;SDS011;8207;52.494;4.654;2022-10-16T09:24:09;14.50;;;4.60;;
16199;SDS011;8207;52.494;4.654;2022-10-16T09:26:40;17.05;;;4.53;;
16199;SDS011;8207;52.494;4.654;2022-10-16T09:29:08;15.70;;;4.33;;
16199;SDS011;8207;52.494;4.654;2022-10-16T09:31:37;16.38;;;3.60;;
16199;SDS011;8207;52.494;4.654;2022-10-16T09:34:05;18.27;;;3.80;;
16199;SDS011;8207;52.494;4.654;2022-10-16T09:36:43;17.52;;;3.20;;
16199;SDS011;8207;52.494;4.654;2022-10-16T09:39:12;15.18;;;3.63;;
16199;SDS011;8207;52.494;4.654;2022-10-16T09:41:39;15.13;;;2.90;;
16199;SDS011;8207;52.494;4.654;2022-10-16T09:44:16;13.30;;;2.53;;
16199;SDS011;8207;52.494;4.654;2022-10-16T09:46:46;11.88;;;2.63;;
16199;SDS011;8207;52.494;4.654;2022-10-16T09:49:22;13.55;;;2.40;;
16199;SDS011;8207;52.494;4.654;2022-10-16T09:51:50;10.88;;;2.80;;
16199;SDS011;8207;52.494;4.654;2022-10-16T09:54:28;12.73;;;2.78;;
16199;SDS011;8207;52.494;4.654;2022-10-16T09:57:03;11.57;;;2.50;;
16199;SDS011;8207;52.494;4.654;2022-10-16T09:59:31;10.45;;;2.58;;
16199;SDS011;8207;52.494;4.654;2022-10-16T10:02:00;8.98;;;2.30;;
16199;SDS011;8207;52.494;4.654;2022-10-16T10:04:38;13.48;;;3.05;;
16199;SDS011;8207;52.494;4.654;2022-10-16T10:07:07;12.95;;;3.22;;
16199;SDS011;8207;52.494;4.654;2022-10-16T10:09:45;12.50;;;3.53;;
16199;SDS011;8207;52.494;4.654;2022-10-16T10:12:19;14.77;;;3.97;;
16199;SDS011;8207;52.494;4.654;2022-10-16T10:14:48;13.43;;;4.13;;
16199;SDS011;8207;52.494;4.654;2022-10-16T10:17:17;16.55;;;3.67;;
16199;SDS011;8207;52.494;4.654;2022-10-16T10:19:51;13.82;;;3.20;;
16199;SDS011;8207;52.494;4.654;2022-10-16T10:22:24;13.15;;;3.15;;
16199;SDS011;8207;52.494;4.654;2022-10-16T10:24:56;10.93;;;3.53;;
16199;SDS011;8207;52.494;4.654;2022-10-16T10:27:39;13.95;;;3.28;;
16199;SDS011;8207;52.494;4.654;2022-10-16T10:30:15;13.00;;;3.45;;
16199;SDS011;8207;52.494;4.654;2022-10-16T10:32:48;15.75;;;3.50;;
16199;SDS011;8207;52.494;4.654;2022-10-16T10:35:29;16.40;;;4.10;;
16199;SDS011;8207;52.494;4.654;2022-10-16T10:38:07;12.95;;;4.05;;
16199;SDS011;8207;52.494;4.654;2022-10-16T10:40:49;19.63;;;4.72;;
16199;SDS011;8207;52.494;4.654;2022-10-16T10:43:24;14.07;;;3.90;;
16199;SDS011;8207;52.494;4.654;2022-10-16T10:46:04;13.05;;;3.30;;
16199;SDS011;8207;52.494;4.654;2022-10-16T10:48:43;12.25;;;2.97;;
16199;SDS011;8207;52.494;4.654;2022-10-16T10:51:22;13.90;;;3.05;;
16199;SDS011;8207;52.494;4.654;2022-10-16T10:53:56;10.52;;;2.42;;
16199;SDS011;8207;52.494;4.654;2022-10-16T10:56:40;15.38;;;2.72;;
16199;SDS011;8207;52.494;4.654;2022-10-16T10:59:29;12.82;;;2.42;;
16199;SDS011;8207;52.494;4.654;2022-10-16T11:02:04;8.48;;;2.58;;
16199;SDS011;8207;52.494;4.654;2022-10-16T11:04:44;10.65;;;3.08;;
16199;SDS011;8207;52.494;4.654;2022-10-16T11:07:23;10.18;;;2.72;;
16199;SDS011;8207;52.494;4.654;2022-10-16T11:09:55;17.48;;;3.42;;
16199;SDS011;8207;52.494;4.654;2022-10-16T11:12:25;10.73;;;3.10;;
16199;SDS011;8207;52.494;4.654;2022-10-16T11:14:57;10.75;;;3.20;;
16199;SDS011;8207;52.494;4.654;2022-10-16T11:17:30;10.95;;;2.75;;
16199;SDS011;8207;52.494;4.654;2022-10-16T11:20:02;17.30;;;3.42;;
16199;SDS011;8207;52.494;4.654;2022-10-16T11:22:39;11.95;;;2.80;;
16199;SDS011;8207;52.494;4.654;2022-10-16T11:25:12;12.10;;;2.08;;
16199;SDS011;8207;52.494;4.654;2022-10-16T11:27:43;10.57;;;2.58;;
16199;SDS011;8207;52.494;4.654;2022-10-16T11:30:16;11.25;;;2.30;;
16199;SDS011;8207;52.494;4.654;2022-10-16T11:32:50;13.00;;;2.83;;
16199;SDS011;8207;52.494;4.654;2022-10-16T11:35:30;15.00;;;2.47;;
16199;SDS011;8207;52.494;4.654;2022-10-16T11:38:07;9.35;;;2.05;;
16199;SDS011;8207;52.494;4.654;2022-10-16T11:40:41;7.22;;;2.55;;
16199;SDS011;8207;52.494;4.654;2022-10-16T11:43:13;12.45;;;2.83;;
16199;SDS011;8207;52.494;4.654;2022-10-16T11:45:46;9.82;;;3.05;;
16199;SDS011;8207;52.494;4.654;2022-10-16T11:48:18;12.60;;;2.80;;
16199;SDS011;8207;52.494;4.654;2022-10-16T11:50:52;12.02;;;2.38;;
16199;SDS011;8207;52.494;4.654;2022-10-16T11:53:23;9.88;;;2.97;;
16199;SDS011;8207;52.494;4.654;2022-10-16T11:56:00;13.43;;;2.47;;
16199;SDS011;8207;52.494;4.654;2022-10-16T11:58:29;12.05;;;2.78;;
16199;SDS011;8207;52.494;4.654;2022-10-16T12:01:02;9.88;;;2.80;;
16199;SDS011;8207;52.494;4.654;2022-10-16T12:03:43;10.82;;;2.63;;
16199;SDS011;8207;52.494;4.654;2022-10-16T12:06:23;6.35;;;1.92;;
16199;SDS011;8207;52.494;4.654;2022-10-16T12:08:58;13.05;;;2.83;;
16199;SDS011;8207;52.494;4.654;2022-10-16T12:11:34;12.82;;;2.35;;
16199;SDS011;8207;52.494;4.654;2022-10-16T12:14:19;10.43;;;2.10;;
16199;SDS011;8207;52.494;4.654;2022-10-16T12:16:52;8.40;;;2.03;;
16199;SDS011;8207;52.494;4.654;2022-10-16T12:19:23;7.82;;;1.80;;
16199;SDS011;8207;52.494;4.654;2022-10-16T12:21:52;9.98;;;2.78;;
16199;SDS011;8207;52.494;4.654;2022-10-16T12:24:29;8.95;;;2.40;;
16199;SDS011;8207;52.494;4.654;2022-10-16T12:26:59;7.55;;;2.08;;
16199;SDS011;8207;52.494;4.654;2022-10-16T12:29:30;8.30;;;1.80;;
16199;SDS011;8207;52.494;4.654;2022-10-16T12:32:00;9.80;;;1.73;;
16199;SDS011;8207;52.494;4.654;2022-10-16T12:34:29;8.40;;;2.00;;
16199;SDS011;8207;52.494;4.654;2022-10-16T12:37:14;9.25;;;2.03;;
16199;SDS011;8207;52.494;4.654;2022-10-16T12:39:48;8.45;;;2.88;;
16199;SDS011;8207;52.494;4.654;2022-10-16T12:42:20;6.75;;;2.00;;
16199;SDS011;8207;52.494;4.654;2022-10-16T12:44:49;11.45;;;2.55;;
16199;SDS011;8207;52.494;4.654;2022-10-16T12:47:20;13.68;;;2.97;;
16199;SDS011;8207;52.494;4.654;2022-10-16T12:49:48;9.20;;;2.95;;
16199;SDS011;8207;52.494;4.654;2022-10-16T12:52:23;8.85;;;2.53;;
16199;SDS011;8207;52.494;4.654;2022-10-16T12:54:57;9.10;;;1.98;;
16199;SDS011;8207;52.494;4.654;2022-10-16T12:57:32;11.27;;;2.75;;
16199;SDS011;8207;52.494;4.654;2022-10-16T13:00:09;6.05;;;2.00;;
16199;SDS011;8207;52.494;4.654;2022-10-16T13:05:55;12.80;;;2.97;;
16199;SDS011;8207;52.494;4.654;2022-10-16T13:08:37;8.98;;;1.98;;
16199;SDS011;8207;52.494;4.654;2022-10-16T13:11:23;10.55;;;2.90;;
16199;SDS011;8207;52.494;4.654;2022-10-16T13:14:04;9.90;;;2.38;;
16199;SDS011;8207;52.494;4.654;2022-10-16T13:16:49;7.03;;;2.05;;
16199;SDS011;8207;52.494;4.654;2022-10-16T13:19:24;13.68;;;2.50;;
16199;SDS011;8207;52.494;4.654;2022-10-16T13:21:59;12.15;;;2.05;;
16199;SDS011;8207;52.494;4.654;2022-10-16T13:24:38;10.57;;;2.80;;
16199;SDS011;8207;52.494;4.654;2022-10-16T13:27:22;10.52;;;2.38;;
16199;SDS011;8207;52.494;4.654;2022-10-16T13:30:01;10.13;;;2.10;;
16199;SDS011;8207;52.494;4.654;2022-10-16T13:32:34;13.90;;;2.38;;
16199;SDS011;8207;52.494;4.654;2022-10-16T13:35:01;7.07;;;2.17;;
16199;SDS011;8207;52.494;4.654;2022-10-16T13:37:29;7.50;;;1.92;;
16199;SDS011;8207;52.494;4.654;2022-10-16T13:40:02;13.25;;;2.75;;
16199;SDS011;8207;52.494;4.654;2022-10-16T13:42:45;7.82;;;2.20;;
16199;SDS011;8207;52.494;4.654;2022-10-16T13:45:18;9.75;;;2.72;;
16199;SDS011;8207;52.494;4.654;2022-10-16T13:47:46;8.38;;;2.13;;
16199;SDS011;8207;52.494;4.654;2022-10-16T13:50:14;7.18;;;2.10;;
16199;SDS011;8207;52.494;4.654;2022-10-16T13:52:42;7.78;;;2.30;;
16199;SDS011;8207;52.494;4.654;2022-10-16T13:55:12;11.48;;;2.17;;
16199;SDS011;8207;52.494;4.654;2022-10-16T13:57:39;8.30;;;1.90;;
16199;SDS011;8207;52.494;4.654;2022-10-16T14:00:19;12.50;;;2.30;;
16199;SDS011;8207;52.494;4.654;2022-10-16T14:02:50;10.38;;;2.42;;
16199;SDS011;8207;52.494;4.654;2022-10-16T14:05:21;6.07;;;1.55;;
16199;SDS011;8207;52.494;4.654;2022-10-16T14:07:49;11.18;;;2.65;;
16199;SDS011;8207;52.494;4.654;2022-10-16T14:10:22;11.23;;;2.08;;
16199;SDS011;8207;52.494;4.654;2022-10-16T14:12:54;17.73;;;3.47;;
16199;SDS011;8207;52.494;4.654;2022-10-16T14:15:25;9.93;;;2.60;;
16199;SDS011;8207;52.494;4.654;2022-10-16T14:17:52;8.13;;;2.20;;
16199;SDS011;8207;52.494;4.654;2022-10-16T14:20:20;8.68;;;2.13;;
16199;SDS011;8207;52.494;4.654;2022-10-16T14:22:58;8.75;;;2.40;;
16199;SDS011;8207;52.494;4.654;2022-10-16T14:25:30;8.35;;;2.17;;
16199;SDS011;8207;52.494;4.654;2022-10-16T14:28:01;8.80;;;2.20;;
16199;SDS011;8207;52.494;4.654;2022-10-16T14:30:31;10.32;;;1.95;;
16199;SDS011;8207;52.494;4.654;2022-10-16T14:33:02;11.45;;;2.35;;
16199;SDS011;8207;52.494;4.654;2022-10-16T14:35:30;8.57;;;2.47;;
16199;SDS011;8207;52.494;4.654;2022-10-16T14:37:59;10.68;;;2.30;;
16199;SDS011;8207;52.494;4.654;2022-10-16T14:40:28;7.85;;;1.85;;
16199;SDS011;8207;52.494;4.654;2022-10-16T14:42:57;14.70;;;2.53;;
16199;SDS011;8207;52.494;4.654;2022-10-16T14:45:27;9.00;;;2.40;;
16199;SDS011;8207;52.494;4.654;2022-10-16T14:47:57;7.50;;;2.38;;
16199;SDS011;8207;52.494;4.654;2022-10-16T14:50:26;10.60;;;2.10;;
16199;SDS011;8207;52.494;4.654;2022-10-16T14:52:53;7.65;;;2.30;;
16199;SDS011;8207;52.494;4.654;2022-10-16T14:55:21;10.32;;;2.53;;
16199;SDS011;8207;52.494;4.654;2022-10-16T14:57:48;14.18;;;2.65;;
16199;SDS011;8207;52.494;4.654;2022-10-16T15:00:16;11.18;;;2.67;;
16199;SDS011;8207;52.494;4.654;2022-10-16T15:02:45;10.25;;;2.58;;
16199;SDS011;8207;52.494;4.654;2022-10-16T15:05:15;7.57;;;1.83;;
16199;SDS011;8207;52.494;4.654;2022-10-16T15:07:43;9.80;;;2.20;;
16199;SDS011;8207;52.494;4.654;2022-10-16T15:10:11;10.70;;;2.53;;
16199;SDS011;8207;52.494;4.654;2022-10-16T15:12:39;8.45;;;2.00;;
16199;SDS011;8207;52.494;4.654;2022-10-16T15:15:15;6.50;;;1.77;;
16199;SDS011;8207;52.494;4.654;2022-10-16T15:17:58;6.65;;;1.95;;
16199;SDS011;8207;52.494;4.654;2022-10-16T15:20:27;3.85;;;1.77;;
16199;SDS011;8207;52.494;4.654;2022-10-16T15:22:57;8.38;;;1.95;;